sensor_id;sensor_type;location;lat;lon;timestamp;P1;durP1;ratioP1;P2;durP2;ratioP2
18726;SDS011;9492;51.888;5.186;2022-10-16T00:02:18;3.30;;;2.30;;
18726;SDS011;9492;51.888;5.186;2022-10-16T00:04:44;4.63;;;2.10;;
18726;SDS011;9492;51.888;5.186;2022-10-16T00:07:10;5.20;;;1.97;;
18726;SDS011;9492;51.888;5.186;2022-10-16T00:09:36;5.87;;;2.10;;
18726;SDS011;9492;51.888;5.186;2022-10-16T00:12:02;2.43;;;2.00;;
18726;SDS011;9492;51.888;5.186;2022-10-16T00:14:29;2.97;;;1.87;;
18726;SDS011;9492;51.888;5.186;2022-10-16T00:16:55;3.90;;;1.97;;
18726;SDS011;9492;51.888;5.186;2022-10-16T00:19:21;3.40;;;1.77;;
18726;SDS011;9492;51.888;5.186;2022-10-16T00:21:47;3.67;;;1.80;;
18726;SDS011;9492;51.888;5.186;2022-10-16T00:24:13;4.37;;;2.27;;
18726;SDS011;9492;51.888;5.186;2022-10-16T00:26:39;3.27;;;2.27;;
18726;SDS011;9492;51.888;5.186;2022-10-16T00:29:06;5.40;;;2.20;;
18726;SDS011;9492;51.888;5.186;2022-10-16T00:31:32;3.03;;;1.93;;
18726;SDS011;9492;51.888;5.186;2022-10-16T00:33:58;2.07;;;1.87;;
18726;SDS011;9492;51.888;5.186;2022-10-16T00:36:25;5.40;;;2.03;;
18726;SDS011;9492;51.888;5.186;2022-10-16T00:38:52;2.60;;;2.17;;
18726;SDS011;9492;51.888;5.186;2022-10-16T00:41:19;4.33;;;2.10;;
18726;SDS011;9492;51.888;5.186;2022-10-16T00:46:16;3.80;;;1.90;;
18726;SDS011;9492;51.888;5.186;2022-10-16T00:48:45;3.33;;;1.80;;
18726;SDS011;9492;51.888;5.186;2022-10-16T00:51:13;1.63;;;1.50;;
18726;SDS011;9492;51.888;5.186;2022-10-16T00:53:39;2.77;;;2.13;;
18726;SDS011;9492;51.888;5.186;2022-10-16T00:56:05;1.77;;;1.43;;
18726;SDS011;9492;51.888;5.186;2022-10-16T00:58:31;2.70;;;2.13;;
18726;SDS011;9492;51.888;5.186;2022-10-16T01:00:57;5.07;;;2.17;;
18726;SDS011;9492;51.888;5.186;2022-10-16T01:03:28;2.60;;;1.90;;
18726;SDS011;9492;51.888;5.186;2022-10-16T01:06:15;3.70;;;1.60;;
18726;SDS011;9492;51.888;5.186;2022-10-16T01:13:57;1.70;;;1.60;;
18726;SDS011;9492;51.888;5.186;2022-10-16T01:16:28;3.10;;;2.10;;
18726;SDS011;9492;51.888;5.186;2022-10-16T01:18:57;2.07;;;1.97;;
18726;SDS011;9492;51.888;5.186;2022-10-16T01:21:32;2.00;;;1.90;;
18726;SDS011;9492;51.888;5.186;2022-10-16T01:26:37;3.77;;;2.00;;
18726;SDS011;9492;51.888;5.186;2022-10-16T01:29:09;5.50;;;2.10;;
18726;SDS011;9492;51.888;5.186;2022-10-16T01:31:39;3.63;;;2.13;;
18726;SDS011;9492;51.888;5.186;2022-10-16T01:34:10;2.27;;;1.80;;
18726;SDS011;9492;51.888;5.186;2022-10-16T01:36:42;2.17;;;1.97;;
18726;SDS011;9492;51.888;5.186;2022-10-16T01:39:11;1.87;;;1.77;;
18726;SDS011;9492;51.888;5.186;2022-10-16T01:41:39;2.30;;;2.07;;
18726;SDS011;9492;51.888;5.186;2022-10-16T01:44:28;4.47;;;2.00;;
18726;SDS011;9492;51.888;5.186;2022-10-16T01:46:52;3.37;;;1.90;;
18726;SDS011;9492;51.888;5.186;2022-10-16T01:49:20;3.77;;;2.13;;
18726;SDS011;9492;51.888;5.186;2022-10-16T01:51:47;3.27;;;1.90;;
18726;SDS011;9492;51.888;5.186;2022-10-16T01:54:15;1.73;;;1.37;;
18726;SDS011;9492;51.888;5.186;2022-10-16T01:56:42;3.63;;;2.20;;
18726;SDS011;9492;51.888;5.186;2022-10-16T01:59:10;2.23;;;1.90;;
18726;SDS011;9492;51.888;5.186;2022-10-16T02:01:37;4.17;;;2.27;;
18726;SDS011;9492;51.888;5.186;2022-10-16T02:04:07;4.17;;;1.90;;
18726;SDS011;9492;51.888;5.186;2022-10-16T02:06:34;3.57;;;1.90;;
18726;SDS011;9492;51.888;5.186;2022-10-16T02:09:01;3.90;;;2.33;;
18726;SDS011;9492;51.888;5.186;2022-10-16T02:11:27;1.47;;;1.37;;
18726;SDS011;9492;51.888;5.186;2022-10-16T02:13:53;4.43;;;1.90;;
18726;SDS011;9492;51.888;5.186;2022-10-16T02:16:23;2.80;;;1.50;;
18726;SDS011;9492;51.888;5.186;2022-10-16T02:18:57;1.80;;;1.50;;
18726;SDS011;9492;51.888;5.186;2022-10-16T02:21:25;2.47;;;1.97;;
18726;SDS011;9492;51.888;5.186;2022-10-16T02:23:57;2.73;;;1.77;;
18726;SDS011;9492;51.888;5.186;2022-10-16T02:26:29;1.90;;;1.50;;
18726;SDS011;9492;51.888;5.186;2022-10-16T02:28:59;3.07;;;1.73;;
18726;SDS011;9492;51.888;5.186;2022-10-16T02:31:27;2.07;;;1.87;;
18726;SDS011;9492;51.888;5.186;2022-10-16T02:33:54;2.00;;;1.80;;
18726;SDS011;9492;51.888;5.186;2022-10-16T02:36:21;3.27;;;2.00;;
18726;SDS011;9492;51.888;5.186;2022-10-16T02:38:48;2.00;;;1.53;;
18726;SDS011;9492;51.888;5.186;2022-10-16T02:41:14;2.70;;;1.60;;
18726;SDS011;9492;51.888;5.186;2022-10-16T02:43:40;2.67;;;1.43;;
18726;SDS011;9492;51.888;5.186;2022-10-16T02:46:06;1.73;;;1.60;;
18726;SDS011;9492;51.888;5.186;2022-10-16T02:48:32;3.20;;;1.57;;
18726;SDS011;9492;51.888;5.186;2022-10-16T02:50:59;1.93;;;1.47;;
18726;SDS011;9492;51.888;5.186;2022-10-16T02:53:25;1.60;;;1.30;;
18726;SDS011;9492;51.888;5.186;2022-10-16T02:55:51;1.60;;;1.37;;
18726;SDS011;9492;51.888;5.186;2022-10-16T02:58:17;2.40;;;1.70;;
18726;SDS011;9492;51.888;5.186;2022-10-16T03:00:43;3.67;;;1.33;;
18726;SDS011;9492;51.888;5.186;2022-10-16T03:03:09;1.60;;;1.30;;
18726;SDS011;9492;51.888;5.186;2022-10-16T03:05:35;4.57;;;1.40;;
18726;SDS011;9492;51.888;5.186;2022-10-16T03:08:01;1.70;;;1.60;;
18726;SDS011;9492;51.888;5.186;2022-10-16T03:10:27;1.37;;;1.27;;
18726;SDS011;9492;51.888;5.186;2022-10-16T03:12:53;3.27;;;1.70;;
18726;SDS011;9492;51.888;5.186;2022-10-16T03:15:19;1.57;;;1.47;;
18726;SDS011;9492;51.888;5.186;2022-10-16T03:17:45;1.53;;;1.43;;
18726;SDS011;9492;51.888;5.186;2022-10-16T03:20:11;1.20;;;1.20;;
18726;SDS011;9492;51.888;5.186;2022-10-16T03:22:37;1.00;;;1.00;;
18726;SDS011;9492;51.888;5.186;2022-10-16T03:25:03;1.13;;;1.13;;
18726;SDS011;9492;51.888;5.186;2022-10-16T03:27:29;1.70;;;1.10;;
18726;SDS011;9492;51.888;5.186;2022-10-16T03:29:55;1.60;;;1.30;;
18726;SDS011;9492;51.888;5.186;2022-10-16T03:32:21;1.53;;;1.13;;
18726;SDS011;9492;51.888;5.186;2022-10-16T03:34:49;1.90;;;1.30;;
18726;SDS011;9492;51.888;5.186;2022-10-16T03:37:15;2.47;;;1.47;;
18726;SDS011;9492;51.888;5.186;2022-10-16T03:39:41;1.37;;;1.27;;
18726;SDS011;9492;51.888;5.186;2022-10-16T03:42:07;1.07;;;1.00;;
18726;SDS011;9492;51.888;5.186;2022-10-16T03:44:33;1.50;;;1.40;;
18726;SDS011;9492;51.888;5.186;2022-10-16T03:46:59;2.37;;;1.30;;
18726;SDS011;9492;51.888;5.186;2022-10-16T03:49:25;1.43;;;1.30;;
18726;SDS011;9492;51.888;5.186;2022-10-16T03:51:51;1.53;;;1.30;;
18726;SDS011;9492;51.888;5.186;2022-10-16T03:54:17;1.73;;;1.17;;
18726;SDS011;9492;51.888;5.186;2022-10-16T03:56:43;1.73;;;1.43;;
18726;SDS011;9492;51.888;5.186;2022-10-16T03:59:09;3.13;;;1.50;;
18726;SDS011;9492;51.888;5.186;2022-10-16T04:01:35;1.40;;;1.30;;
18726;SDS011;9492;51.888;5.186;2022-10-16T04:04:01;1.20;;;1.17;;
18726;SDS011;9492;51.888;5.186;2022-10-16T04:06:27;1.93;;;1.77;;
18726;SDS011;9492;51.888;5.186;2022-10-16T04:08:53;2.53;;;1.23;;
18726;SDS011;9492;51.888;5.186;2022-10-16T04:11:19;2.50;;;1.13;;
18726;SDS011;9492;51.888;5.186;2022-10-16T04:13:45;1.30;;;1.20;;
18726;SDS011;9492;51.888;5.186;2022-10-16T04:16:11;1.03;;;1.03;;
18726;SDS011;9492;51.888;5.186;2022-10-16T04:18:37;1.57;;;1.10;;
18726;SDS011;9492;51.888;5.186;2022-10-16T04:21:06;3.20;;;1.20;;
18726;SDS011;9492;51.888;5.186;2022-10-16T04:23:32;2.17;;;1.33;;
18726;SDS011;9492;51.888;5.186;2022-10-16T04:25:59;2.53;;;1.50;;
18726;SDS011;9492;51.888;5.186;2022-10-16T04:28:25;1.50;;;1.20;;
18726;SDS011;9492;51.888;5.186;2022-10-16T04:30:51;1.30;;;1.20;;
18726;SDS011;9492;51.888;5.186;2022-10-16T04:33:17;1.73;;;1.40;;
18726;SDS011;9492;51.888;5.186;2022-10-16T04:35:43;1.10;;;1.07;;
18726;SDS011;9492;51.888;5.186;2022-10-16T04:38:09;2.90;;;1.30;;
18726;SDS011;9492;51.888;5.186;2022-10-16T04:40:35;1.87;;;1.60;;
18726;SDS011;9492;51.888;5.186;2022-10-16T04:43:04;1.77;;;1.20;;
18726;SDS011;9492;51.888;5.186;2022-10-16T04:45:30;1.67;;;1.10;;
18726;SDS011;9492;51.888;5.186;2022-10-16T04:47:57;3.17;;;1.20;;
18726;SDS011;9492;51.888;5.186;2022-10-16T04:50:23;1.20;;;1.20;;
18726;SDS011;9492;51.888;5.186;2022-10-16T04:52:49;2.07;;;1.30;;
18726;SDS011;9492;51.888;5.186;2022-10-16T04:55:15;3.40;;;1.27;;
18726;SDS011;9492;51.888;5.186;2022-10-16T04:57:41;1.73;;;1.30;;
18726;SDS011;9492;51.888;5.186;2022-10-16T05:00:07;1.60;;;1.50;;
18726;SDS011;9492;51.888;5.186;2022-10-16T05:02:33;1.70;;;1.20;;
18726;SDS011;9492;51.888;5.186;2022-10-16T05:04:59;1.93;;;1.07;;
18726;SDS011;9492;51.888;5.186;2022-10-16T05:07:25;1.57;;;1.47;;
18726;SDS011;9492;51.888;5.186;2022-10-16T05:09:51;1.30;;;1.20;;
18726;SDS011;9492;51.888;5.186;2022-10-16T05:12:18;2.03;;;1.20;;
18726;SDS011;9492;51.888;5.186;2022-10-16T05:14:44;1.40;;;1.30;;
18726;SDS011;9492;51.888;5.186;2022-10-16T05:17:10;1.40;;;1.30;;
18726;SDS011;9492;51.888;5.186;2022-10-16T05:19:36;1.80;;;1.20;;
18726;SDS011;9492;51.888;5.186;2022-10-16T05:22:02;1.40;;;1.30;;
18726;SDS011;9492;51.888;5.186;2022-10-16T05:24:28;1.10;;;0.97;;
18726;SDS011;9492;51.888;5.186;2022-10-16T05:26:54;1.53;;;1.40;;
18726;SDS011;9492;51.888;5.186;2022-10-16T05:29:20;1.33;;;1.23;;
18726;SDS011;9492;51.888;5.186;2022-10-16T05:31:46;1.40;;;1.30;;
18726;SDS011;9492;51.888;5.186;2022-10-16T05:34:12;1.87;;;1.47;;
18726;SDS011;9492;51.888;5.186;2022-10-16T05:36:38;1.30;;;1.20;;
18726;SDS011;9492;51.888;5.186;2022-10-16T05:39:04;2.83;;;1.50;;
18726;SDS011;9492;51.888;5.186;2022-10-16T05:41:32;4.20;;;1.60;;
18726;SDS011;9492;51.888;5.186;2022-10-16T05:43:58;5.67;;;2.00;;
18726;SDS011;9492;51.888;5.186;2022-10-16T05:46:24;2.20;;;1.30;;
18726;SDS011;9492;51.888;5.186;2022-10-16T05:48:53;1.60;;;1.50;;
18726;SDS011;9492;51.888;5.186;2022-10-16T05:51:19;1.60;;;1.50;;
18726;SDS011;9492;51.888;5.186;2022-10-16T05:53:45;1.40;;;1.30;;
18726;SDS011;9492;51.888;5.186;2022-10-16T05:56:11;1.67;;;1.57;;
18726;SDS011;9492;51.888;5.186;2022-10-16T05:58:37;4.47;;;1.93;;
18726;SDS011;9492;51.888;5.186;2022-10-16T06:01:12;3.73;;;1.80;;
18726;SDS011;9492;51.888;5.186;2022-10-16T06:03:39;1.97;;;1.67;;
18726;SDS011;9492;51.888;5.186;2022-10-16T06:06:09;2.37;;;1.40;;
18726;SDS011;9492;51.888;5.186;2022-10-16T06:08:35;3.07;;;1.90;;
18726;SDS011;9492;51.888;5.186;2022-10-16T06:11:05;3.30;;;1.60;;
18726;SDS011;9492;51.888;5.186;2022-10-16T06:13:31;1.53;;;1.30;;
18726;SDS011;9492;51.888;5.186;2022-10-16T06:15:58;4.13;;;1.90;;
18726;SDS011;9492;51.888;5.186;2022-10-16T06:18:24;4.70;;;2.17;;
18726;SDS011;9492;51.888;5.186;2022-10-16T06:20:50;2.47;;;1.60;;
18726;SDS011;9492;51.888;5.186;2022-10-16T06:23:16;2.03;;;1.53;;
18726;SDS011;9492;51.888;5.186;2022-10-16T06:25:42;1.90;;;1.80;;
18726;SDS011;9492;51.888;5.186;2022-10-16T06:28:08;1.80;;;1.70;;
18726;SDS011;9492;51.888;5.186;2022-10-16T06:30:34;2.20;;;1.47;;
18726;SDS011;9492;51.888;5.186;2022-10-16T06:33:00;2.67;;;1.77;;
18726;SDS011;9492;51.888;5.186;2022-10-16T06:35:26;1.77;;;1.47;;
18726;SDS011;9492;51.888;5.186;2022-10-16T06:37:54;2.13;;;1.93;;
18726;SDS011;9492;51.888;5.186;2022-10-16T06:40:20;3.80;;;2.00;;
18726;SDS011;9492;51.888;5.186;2022-10-16T06:42:46;1.60;;;1.50;;
18726;SDS011;9492;51.888;5.186;2022-10-16T06:45:12;2.20;;;1.70;;
18726;SDS011;9492;51.888;5.186;2022-10-16T06:47:38;2.90;;;1.70;;
18726;SDS011;9492;51.888;5.186;2022-10-16T06:50:04;1.73;;;1.63;;
18726;SDS011;9492;51.888;5.186;2022-10-16T06:52:31;1.80;;;1.70;;
18726;SDS011;9492;51.888;5.186;2022-10-16T06:54:58;3.63;;;1.87;;
18726;SDS011;9492;51.888;5.186;2022-10-16T06:57:24;1.67;;;1.50;;
18726;SDS011;9492;51.888;5.186;2022-10-16T06:59:50;2.13;;;1.40;;
18726;SDS011;9492;51.888;5.186;2022-10-16T07:02:16;2.23;;;1.30;;
18726;SDS011;9492;51.888;5.186;2022-10-16T07:04:42;5.00;;;1.73;;
18726;SDS011;9492;51.888;5.186;2022-10-16T07:07:08;4.90;;;1.90;;
18726;SDS011;9492;51.888;5.186;2022-10-16T07:09:34;2.93;;;1.73;;
18726;SDS011;9492;51.888;5.186;2022-10-16T07:12:00;3.67;;;1.83;;
18726;SDS011;9492;51.888;5.186;2022-10-16T07:14:26;1.53;;;1.43;;
18726;SDS011;9492;51.888;5.186;2022-10-16T07:16:52;1.83;;;1.50;;
18726;SDS011;9492;51.888;5.186;2022-10-16T07:19:18;3.67;;;1.77;;
18726;SDS011;9492;51.888;5.186;2022-10-16T07:21:44;2.73;;;2.07;;
18726;SDS011;9492;51.888;5.186;2022-10-16T07:24:11;1.83;;;1.60;;
18726;SDS011;9492;51.888;5.186;2022-10-16T07:26:38;3.63;;;1.77;;
18726;SDS011;9492;51.888;5.186;2022-10-16T07:29:18;5.13;;;1.90;;
18726;SDS011;9492;51.888;5.186;2022-10-16T07:31:44;2.83;;;1.70;;
18726;SDS011;9492;51.888;5.186;2022-10-16T07:34:11;2.13;;;1.70;;
18726;SDS011;9492;51.888;5.186;2022-10-16T07:36:37;2.33;;;1.67;;
18726;SDS011;9492;51.888;5.186;2022-10-16T07:39:03;2.30;;;1.70;;
18726;SDS011;9492;51.888;5.186;2022-10-16T07:41:29;2.23;;;1.43;;
18726;SDS011;9492;51.888;5.186;2022-10-16T07:43:58;1.93;;;1.40;;
18726;SDS011;9492;51.888;5.186;2022-10-16T07:46:27;2.80;;;1.70;;
18726;SDS011;9492;51.888;5.186;2022-10-16T07:48:53;1.67;;;1.57;;
18726;SDS011;9492;51.888;5.186;2022-10-16T07:51:20;1.67;;;1.53;;
18726;SDS011;9492;51.888;5.186;2022-10-16T07:53:47;4.40;;;1.60;;
18726;SDS011;9492;51.888;5.186;2022-10-16T07:56:13;3.90;;;1.47;;
18726;SDS011;9492;51.888;5.186;2022-10-16T07:58:39;4.10;;;1.67;;
18726;SDS011;9492;51.888;5.186;2022-10-16T08:01:09;1.80;;;1.70;;
18726;SDS011;9492;51.888;5.186;2022-10-16T08:03:36;2.53;;;1.83;;
18726;SDS011;9492;51.888;5.186;2022-10-16T08:06:02;1.53;;;1.43;;
18726;SDS011;9492;51.888;5.186;2022-10-16T08:08:29;4.70;;;1.80;;
18726;SDS011;9492;51.888;5.186;2022-10-16T08:10:55;1.80;;;1.33;;
18726;SDS011;9492;51.888;5.186;2022-10-16T08:13:21;1.70;;;1.60;;
18726;SDS011;9492;51.888;5.186;2022-10-16T08:15:47;3.90;;;1.60;;
18726;SDS011;9492;51.888;5.186;2022-10-16T08:18:14;3.17;;;1.57;;
18726;SDS011;9492;51.888;5.186;2022-10-16T08:20:41;2.33;;;1.50;;
18726;SDS011;9492;51.888;5.186;2022-10-16T08:23:16;3.43;;;1.60;;
18726;SDS011;9492;51.888;5.186;2022-10-16T08:25:42;4.30;;;1.80;;
18726;SDS011;9492;51.888;5.186;2022-10-16T08:28:08;2.27;;;1.43;;
18726;SDS011;9492;51.888;5.186;2022-10-16T08:30:35;3.00;;;1.63;;
18726;SDS011;9492;51.888;5.186;2022-10-16T08:33:01;2.00;;;1.60;;
18726;SDS011;9492;51.888;5.186;2022-10-16T08:35:27;2.67;;;1.83;;
18726;SDS011;9492;51.888;5.186;2022-10-16T08:37:53;2.00;;;1.40;;
18726;SDS011;9492;51.888;5.186;2022-10-16T08:40:20;2.43;;;1.60;;
18726;SDS011;9492;51.888;5.186;2022-10-16T08:50:29;3.27;;;1.70;;
18726;SDS011;9492;51.888;5.186;2022-10-16T08:52:55;3.10;;;1.33;;
18726;SDS011;9492;51.888;5.186;2022-10-16T08:57:54;3.27;;;1.70;;
18726;SDS011;9492;51.888;5.186;2022-10-16T09:00:20;4.70;;;1.70;;
18726;SDS011;9492;51.888;5.186;2022-10-16T09:02:56;3.10;;;1.70;;
18726;SDS011;9492;51.888;5.186;2022-10-16T09:07:55;4.13;;;1.97;;
18726;SDS011;9492;51.888;5.186;2022-10-16T09:13:15;3.87;;;1.73;;
18726;SDS011;9492;51.888;5.186;2022-10-16T09:15:47;3.63;;;1.80;;
18726;SDS011;9492;51.888;5.186;2022-10-16T09:18:18;6.20;;;1.93;;
18726;SDS011;9492;51.888;5.186;2022-10-16T09:20:49;3.40;;;1.90;;
18726;SDS011;9492;51.888;5.186;2022-10-16T09:23:27;3.87;;;1.77;;
18726;SDS011;9492;51.888;5.186;2022-10-16T09:25:54;4.67;;;2.10;;
18726;SDS011;9492;51.888;5.186;2022-10-16T09:28:20;3.60;;;1.70;;
18726;SDS011;9492;51.888;5.186;2022-10-16T09:30:46;5.80;;;2.47;;
18726;SDS011;9492;51.888;5.186;2022-10-16T09:33:17;4.37;;;1.80;;
18726;SDS011;9492;51.888;5.186;2022-10-16T09:35:44;6.37;;;1.93;;
18726;SDS011;9492;51.888;5.186;2022-10-16T09:38:28;4.63;;;1.60;;
18726;SDS011;9492;51.888;5.186;2022-10-16T09:40:54;6.47;;;2.47;;
18726;SDS011;9492;51.888;5.186;2022-10-16T09:43:22;4.47;;;2.20;;
18726;SDS011;9492;51.888;5.186;2022-10-16T09:46:08;6.43;;;1.80;;
18726;SDS011;9492;51.888;5.186;2022-10-16T09:48:47;5.93;;;1.70;;
18726;SDS011;9492;51.888;5.186;2022-10-16T09:51:16;6.33;;;2.20;;
18726;SDS011;9492;51.888;5.186;2022-10-16T09:53:45;3.80;;;1.80;;
18726;SDS011;9492;51.888;5.186;2022-10-16T09:56:20;5.60;;;2.07;;
18726;SDS011;9492;51.888;5.186;2022-10-16T09:58:49;6.47;;;1.70;;
18726;SDS011;9492;51.888;5.186;2022-10-16T10:01:16;4.30;;;1.80;;
18726;SDS011;9492;51.888;5.186;2022-10-16T10:03:43;5.23;;;2.03;;
18726;SDS011;9492;51.888;5.186;2022-10-16T10:06:26;7.67;;;2.03;;
18726;SDS011;9492;51.888;5.186;2022-10-16T10:08:53;7.37;;;2.40;;
18726;SDS011;9492;51.888;5.186;2022-10-16T10:11:35;6.60;;;2.23;;
18726;SDS011;9492;51.888;5.186;2022-10-16T10:14:05;10.50;;;2.73;;
18726;SDS011;9492;51.888;5.186;2022-10-16T10:16:32;7.03;;;2.37;;
18726;SDS011;9492;51.888;5.186;2022-10-16T10:18:58;4.37;;;1.70;;
18726;SDS011;9492;51.888;5.186;2022-10-16T10:21:24;4.67;;;2.20;;
18726;SDS011;9492;51.888;5.186;2022-10-16T10:23:56;5.23;;;1.97;;
18726;SDS011;9492;51.888;5.186;2022-10-16T10:26:24;6.30;;;2.37;;
18726;SDS011;9492;51.888;5.186;2022-10-16T10:29:15;5.50;;;1.90;;
18726;SDS011;9492;51.888;5.186;2022-10-16T10:31:53;9.73;;;2.90;;
18726;SDS011;9492;51.888;5.186;2022-10-16T10:36:56;5.97;;;1.73;;
18726;SDS011;9492;51.888;5.186;2022-10-16T10:39:39;6.37;;;2.17;;
18726;SDS011;9492;51.888;5.186;2022-10-16T10:42:10;6.30;;;1.63;;
18726;SDS011;9492;51.888;5.186;2022-10-16T10:54:58;7.77;;;1.90;;
18726;SDS011;9492;51.888;5.186;2022-10-16T11:00:17;7.17;;;1.77;;
18726;SDS011;9492;51.888;5.186;2022-10-16T11:02:48;4.73;;;1.93;;
18726;SDS011;9492;51.888;5.186;2022-10-16T11:05:20;10.23;;;2.23;;
18726;SDS011;9492;51.888;5.186;2022-10-16T11:10:40;6.10;;;1.80;;
18726;SDS011;9492;51.888;5.186;2022-10-16T11:13:10;9.43;;;2.10;;
18726;SDS011;9492;51.888;5.186;2022-10-16T11:15:41;9.50;;;2.37;;
18726;SDS011;9492;51.888;5.186;2022-10-16T11:18:15;5.57;;;2.10;;
18726;SDS011;9492;51.888;5.186;2022-10-16T11:20:49;8.67;;;1.97;;
18726;SDS011;9492;51.888;5.186;2022-10-16T11:25:48;5.93;;;1.77;;
18726;SDS011;9492;51.888;5.186;2022-10-16T11:28:29;4.90;;;2.03;;
18726;SDS011;9492;51.888;5.186;2022-10-16T11:33:30;6.63;;;2.33;;
18726;SDS011;9492;51.888;5.186;2022-10-16T11:36:12;8.07;;;2.17;;
18726;SDS011;9492;51.888;5.186;2022-10-16T11:38:43;7.40;;;2.10;;
18726;SDS011;9492;51.888;5.186;2022-10-16T11:41:17;8.27;;;2.23;;
18726;SDS011;9492;51.888;5.186;2022-10-16T11:44:20;6.50;;;2.07;;
18726;SDS011;9492;51.888;5.186;2022-10-16T11:46:37;8.20;;;1.90;;
18726;SDS011;9492;51.888;5.186;2022-10-16T11:49:10;7.60;;;2.27;;
18726;SDS011;9492;51.888;5.186;2022-10-16T11:51:54;7.83;;;1.90;;
18726;SDS011;9492;51.888;5.186;2022-10-16T11:54:32;6.70;;;1.80;;
18726;SDS011;9492;51.888;5.186;2022-10-16T11:57:01;8.13;;;2.20;;
18726;SDS011;9492;51.888;5.186;2022-10-16T11:59:46;7.40;;;2.37;;
18726;SDS011;9492;51.888;5.186;2022-10-16T12:07:46;7.27;;;2.40;;
18726;SDS011;9492;51.888;5.186;2022-10-16T12:10:21;5.83;;;1.70;;
18726;SDS011;9492;51.888;5.186;2022-10-16T12:12:47;10.17;;;2.20;;
18726;SDS011;9492;51.888;5.186;2022-10-16T12:15:30;6.77;;;1.90;;
18726;SDS011;9492;51.888;5.186;2022-10-16T12:17:56;5.50;;;1.83;;
18726;SDS011;9492;51.888;5.186;2022-10-16T12:22:53;7.43;;;2.23;;
18726;SDS011;9492;51.888;5.186;2022-10-16T12:25:36;8.80;;;2.70;;
18726;SDS011;9492;51.888;5.186;2022-10-16T12:28:21;6.70;;;1.60;;
18726;SDS011;9492;51.888;5.186;2022-10-16T12:30:54;4.87;;;1.60;;
18726;SDS011;9492;51.888;5.186;2022-10-16T12:33:22;9.83;;;2.10;;
18726;SDS011;9492;51.888;5.186;2022-10-16T12:35:49;6.53;;;1.87;;
18726;SDS011;9492;51.888;5.186;2022-10-16T12:38:16;7.03;;;2.10;;
18726;SDS011;9492;51.888;5.186;2022-10-16T12:40:43;6.17;;;2.00;;
18726;SDS011;9492;51.888;5.186;2022-10-16T12:43:11;5.27;;;1.50;;
18726;SDS011;9492;51.888;5.186;2022-10-16T12:45:37;10.17;;;2.00;;
18726;SDS011;9492;51.888;5.186;2022-10-16T12:48:04;4.10;;;1.80;;
18726;SDS011;9492;51.888;5.186;2022-10-16T12:50:43;3.93;;;1.73;;
18726;SDS011;9492;51.888;5.186;2022-10-16T12:53:20;7.33;;;2.20;;
18726;SDS011;9492;51.888;5.186;2022-10-16T12:55:54;7.23;;;1.70;;
18726;SDS011;9492;51.888;5.186;2022-10-16T12:58:34;7.27;;;1.87;;
18726;SDS011;9492;51.888;5.186;2022-10-16T13:01:07;7.67;;;1.80;;
18726;SDS011;9492;51.888;5.186;2022-10-16T13:03:50;6.50;;;1.77;;
18726;SDS011;9492;51.888;5.186;2022-10-16T13:09:07;6.57;;;1.67;;
18726;SDS011;9492;51.888;5.186;2022-10-16T13:11:58;5.97;;;2.13;;
18726;SDS011;9492;51.888;5.186;2022-10-16T13:14:39;9.90;;;2.27;;
18726;SDS011;9492;51.888;5.186;2022-10-16T13:17:11;8.80;;;1.77;;
18726;SDS011;9492;51.888;5.186;2022-10-16T13:22:13;8.87;;;1.57;;
18726;SDS011;9492;51.888;5.186;2022-10-16T13:27:29;7.77;;;2.13;;
18726;SDS011;9492;51.888;5.186;2022-10-16T13:30:40;5.47;;;2.00;;
18726;SDS011;9492;51.888;5.186;2022-10-16T13:32:47;5.57;;;2.00;;
18726;SDS011;9492;51.888;5.186;2022-10-16T13:35:22;7.87;;;2.10;;
18726;SDS011;9492;51.888;5.186;2022-10-16T13:37:48;4.53;;;1.33;;
18726;SDS011;9492;51.888;5.186;2022-10-16T13:40:19;6.60;;;1.70;;
18726;SDS011;9492;51.888;5.186;2022-10-16T13:42:45;7.77;;;2.00;;
18726;SDS011;9492;51.888;5.186;2022-10-16T13:45:21;7.80;;;1.57;;
18726;SDS011;9492;51.888;5.186;2022-10-16T13:47:47;6.17;;;1.87;;
18726;SDS011;9492;51.888;5.186;2022-10-16T13:50:17;4.57;;;1.70;;
18726;SDS011;9492;51.888;5.186;2022-10-16T13:52:43;6.70;;;1.93;;
18726;SDS011;9492;51.888;5.186;2022-10-16T13:55:16;6.47;;;1.87;;
18726;SDS011;9492;51.888;5.186;2022-10-16T13:57:43;7.23;;;1.70;;
18726;SDS011;9492;51.888;5.186;2022-10-16T14:00:19;6.80;;;2.47;;
18726;SDS011;9492;51.888;5.186;2022-10-16T14:02:45;8.83;;;1.57;;
18726;SDS011;9492;51.888;5.186;2022-10-16T14:05:17;5.47;;;2.00;;
18726;SDS011;9492;51.888;5.186;2022-10-16T14:07:42;5.10;;;1.70;;
18726;SDS011;9492;51.888;5.186;2022-10-16T14:10:20;8.43;;;2.33;;
18726;SDS011;9492;51.888;5.186;2022-10-16T14:12:57;6.30;;;1.80;;
18726;SDS011;9492;51.888;5.186;2022-10-16T14:15:24;6.53;;;1.80;;
18726;SDS011;9492;51.888;5.186;2022-10-16T14:17:50;5.70;;;2.00;;
18726;SDS011;9492;51.888;5.186;2022-10-16T14:20:17;5.73;;;2.07;;
18726;SDS011;9492;51.888;5.186;2022-10-16T14:22:43;4.53;;;1.50;;
18726;SDS011;9492;51.888;5.186;2022-10-16T14:28:13;6.63;;;2.13;;
18726;SDS011;9492;51.888;5.186;2022-10-16T14:30:49;3.43;;;1.50;;
18726;SDS011;9492;51.888;5.186;2022-10-16T14:33:22;7.87;;;2.27;;
18726;SDS011;9492;51.888;5.186;2022-10-16T14:36:34;6.07;;;1.40;;
18726;SDS011;9492;51.888;5.186;2022-10-16T14:38:35;5.50;;;1.70;;
18726;SDS011;9492;51.888;5.186;2022-10-16T14:41:01;5.73;;;2.10;;
18726;SDS011;9492;51.888;5.186;2022-10-16T14:43:31;4.43;;;1.33;;
18726;SDS011;9492;51.888;5.186;2022-10-16T14:45:57;4.93;;;2.00;;
18726;SDS011;9492;51.888;5.186;2022-10-16T14:48:23;4.60;;;1.77;;
18726;SDS011;9492;51.888;5.186;2022-10-16T14:50:50;4.80;;;1.77;;
18726;SDS011;9492;51.888;5.186;2022-10-16T14:53:16;4.37;;;1.63;;
18726;SDS011;9492;51.888;5.186;2022-10-16T14:55:42;4.10;;;1.90;;
18726;SDS011;9492;51.888;5.186;2022-10-16T14:58:26;5.73;;;2.00;;
18726;SDS011;9492;51.888;5.186;2022-10-16T15:00:52;7.47;;;2.40;;
18726;SDS011;9492;51.888;5.186;2022-10-16T15:03:18;6.23;;;2.10;;
18726;SDS011;9492;51.888;5.186;2022-10-16T15:05:44;7.40;;;2.27;;
18726;SDS011;9492;51.888;5.186;2022-10-16T15:08:10;6.57;;;1.90;;
18726;SDS011;9492;51.888;5.186;2022-10-16T15:10:39;7.70;;;1.90;;
18726;SDS011;9492;51.888;5.186;2022-10-16T15:13:05;5.80;;;1.90;;
18726;SDS011;9492;51.888;5.186;2022-10-16T15:15:35;5.87;;;1.90;;
18726;SDS011;9492;51.888;5.186;2022-10-16T15:18:02;4.17;;;1.40;;
18726;SDS011;9492;51.888;5.186;2022-10-16T15:20:30;7.30;;;2.10;;
18726;SDS011;9492;51.888;5.186;2022-10-16T15:22:58;4.50;;;1.73;;
18726;SDS011;9492;51.888;5.186;2022-10-16T15:25:35;6.87;;;2.67;;
18726;SDS011;9492;51.888;5.186;2022-10-16T15:28:02;7.83;;;2.30;;
18726;SDS011;9492;51.888;5.186;2022-10-16T15:30:28;6.17;;;2.70;;
18726;SDS011;9492;51.888;5.186;2022-10-16T15:32:54;5.80;;;2.10;;
18726;SDS011;9492;51.888;5.186;2022-10-16T15:35:20;4.30;;;2.10;;
18726;SDS011;9492;51.888;5.186;2022-10-16T15:37:46;6.37;;;2.40;;
18726;SDS011;9492;51.888;5.186;2022-10-16T15:40:13;7.67;;;2.70;;
18726;SDS011;9492;51.888;5.186;2022-10-16T15:42:39;3.83;;;2.13;;
18726;SDS011;9492;51.888;5.186;2022-10-16T15:45:05;5.27;;;2.30;;
18726;SDS011;9492;51.888;5.186;2022-10-16T15:47:31;7.27;;;2.40;;
18726;SDS011;9492;51.888;5.186;2022-10-16T15:49:58;7.87;;;1.90;;
18726;SDS011;9492;51.888;5.186;2022-10-16T15:52:24;7.27;;;2.27;;
18726;SDS011;9492;51.888;5.186;2022-10-16T15:54:50;6.97;;;2.40;;
18726;SDS011;9492;51.888;5.186;2022-10-16T15:57:16;6.83;;;2.20;;
18726;SDS011;9492;51.888;5.186;2022-10-16T15:59:42;6.57;;;2.30;;
18726;SDS011;9492;51.888;5.186;2022-10-16T16:02:08;4.70;;;1.97;;
18726;SDS011;9492;51.888;5.186;2022-10-16T16:04:34;5.70;;;2.10;;
18726;SDS011;9492;51.888;5.186;2022-10-16T16:07:00;7.17;;;2.80;;
18726;SDS011;9492;51.888;5.186;2022-10-16T16:09:28;12.73;;;4.33;;
18726;SDS011;9492;51.888;5.186;2022-10-16T16:11:54;6.00;;;2.63;;
18726;SDS011;9492;51.888;5.186;2022-10-16T16:14:20;8.37;;;3.60;;
18726;SDS011;9492;51.888;5.186;2022-10-16T16:16:46;4.87;;;2.43;;
18726;SDS011;9492;51.888;5.186;2022-10-16T16:19:12;9.10;;;2.47;;